HETB/TCP METAR and TAF weather

Enter ICAO airport designator
Station Type Date Time Source
HETB METAR 2019/05/08 19:00 UTC NOAA

HETB 081900Z 33012KT CAVOK 19/14 Q1015 NOSIG


Station Type Date Time Source
HETB Decoded METAR 2019/05/08 19:00 UTC NOAA

Taba, Egypt (HETB) 29-35-57N 034-46-36E
May 08, 2019 - 03:00 PM EDT / 2019.05.08 1900 UTC
Wind: from the NNW (330 degrees) at 14 MPH (12 KT):0
Visibility: greater than 7 mile(s):0
Temperature: 66 F (19 C)
Dew Point: 57 F (14 C)
Relative Humidity: 72%
Pressure (altimeter): 29.97 in. Hg (1015 hPa)
ob: HETB 081900Z 33012KT CAVOK 19/14 Q1015 NOSIG
cycle: 19

Station Type Date Time Source
HETB TAF 2019/06/18 12:40 UTC NOAA

TAF HETB 181100Z 1812/1918 04015KT CAVOK
BECMG 1821/1823 VRB03KT
BECMG 1906/1908 03014KT

Example: see airport list